Washington, DC (20389)

11:36 PM EST on January 26, 2015 (GMT -0500)
Capitol Hill, Washington, DC USA | Change Station
CLOSE
Current Station
Personal Weather Station
Location: Washington, DC
Elevation: 92 ft
Nearby Weather Stations
Active Advisory: Winter Weather Advisory Active Notice: Public Information Statement

Elev 92 ft 38.89 °N, 76.99 °W | Updated 1 minute ago

Snow
Snow
26.3 °F
Feels Like 26 °F
N
0.0
Wind Variable Wind from NNE

Today
High -- | Low -- °F
--% Chance of Precip.
Yesterday
High -- | Low -- °F
Precip. -- in
7:18 AM 5:22 PM
Waxing Crescent, 50% visible
Pressure 29.72 in
Visibility 5.0 miles
Clouds Few 900 ft
Overcast 1600 ft
Windchill 26 °F
Dew Point 25 °F
Humidity 93%
Rainfall 0.15 in
Snow Depth Not available.
UV 0 out of 12
Pollen .30 out of 12
Air Quality Not available.
Flu Activity Not available.
SPECI KADW 270413Z AUTO 32009KT 5SM -SN BR FEW009 OVC016 M03/M05 A2972 RMK AO2 $

More Conditions Fewer Conditions

Pressure 29.72 in
Visibility 5.0 miles
Clouds Few 900 ft
Overcast 1600 ft
Windchill 26 °F
Dew Point 25 °F
Humidity 93%
Rainfall 0.15 in
Snow Depth Not available.
UV 0 out of 12
Pollen .30 out of 12
Air Quality Not available.
Flu Activity Not available.
SPECI KADW 270413Z AUTO 32009KT 5SM -SN BR FEW009 OVC016 M03/M05 A2972 RMK AO2 $

More Conditions Fewer Conditions

10-Day Weather Forecast

Almanac

Astronomy

Jan. 26, 2015 Rise Set
Actual Time
Civil Twilight
Nautical Twilight
Astronomical Twilight
Moon
Length of Visible Light
Length of Day
Tomorrow will be .
, % of the Moon is Illuminated

Today's Extremes

State Highs State Lows

Community

WunderPhotos

Upload Photos

1,790,527 photos uploaded!

WunderBlogs® & News

Nearby

Air Quality

  Air Quality AQ Index Pollutant
Not available.

Snow Depth

Station Depth Elevation

Earthquake Activity

City Distance Mag. Time & Date
Minimum magnitude displayed is 2.5.

Coastal Water Temperatures

Place Temperature

Nearby Weather Stations